createdAt,value
2022-12-15T00:00:48.823Z,-7.29
2022-12-15T00:03:47.568Z,-7.28
2022-12-15T00:06:34.561Z,-7.31
2022-12-15T00:09:25.147Z,-7.43
2022-12-15T00:12:15.030Z,-7.51
2022-12-15T00:15:01.825Z,-7.62
2022-12-15T00:17:49.142Z,-7.78
2022-12-15T00:20:36.735Z,-7.94
2022-12-15T00:23:31.783Z,-8.08
2022-12-15T00:26:19.250Z,-8.20
2022-12-15T00:29:06.247Z,-8.29
2022-12-15T00:31:53.576Z,-8.36
2022-12-15T00:34:40.668Z,-8.38
2022-12-15T00:37:27.801Z,-8.45
2022-12-15T00:39:59.197Z,-8.47
2022-12-15T00:42:29.042Z,-8.38
2022-12-15T00:44:57.544Z,-8.30
2022-12-15T00:47:26.246Z,-8.17
2022-12-15T00:50:13.115Z,-8.00
2022-12-15T00:53:00.259Z,-7.93
2022-12-15T00:55:47.653Z,-7.97
2022-12-15T00:58:36.637Z,-8.03
2022-12-15T01:01:30.240Z,-8.03
2022-12-15T01:04:17.462Z,-7.98
2022-12-15T01:07:04.850Z,-7.78
2022-12-15T01:09:51.713Z,-7.58
2022-12-15T01:12:39.090Z,-7.45
2022-12-15T01:15:26.820Z,-7.33
2022-12-15T01:18:13.994Z,-7.28
2022-12-15T01:20:42.306Z,-7.31
2022-12-15T01:23:10.821Z,-7.33
2022-12-15T01:25:40.054Z,-7.32
2022-12-15T01:28:08.384Z,-7.29
2022-12-15T01:30:36.725Z,-7.31
2022-12-15T01:33:05.026Z,-7.35
2022-12-15T01:35:33.406Z,-7.37
2022-12-15T01:38:01.802Z,-7.39
2022-12-15T01:40:45.815Z,-7.37
2022-12-15T01:43:24.396Z,-7.31
2022-12-15T01:46:03.273Z,-7.22
2022-12-15T01:48:52.253Z,-7.15
2022-12-15T01:51:25.884Z,-7.13
2022-12-15T01:53:58.715Z,-7.07
2022-12-15T01:56:35.362Z,-7.05
2022-12-15T01:59:11.920Z,-7.03
2022-12-15T02:01:40.584Z,-6.99
2022-12-15T02:04:09.351Z,-6.97
2022-12-15T02:06:37.745Z,-6.96
2022-12-15T02:09:06.580Z,-6.98
2022-12-15T02:11:43.773Z,-7.02
2022-12-15T02:14:15.953Z,-7.01
2022-12-15T02:16:53.693Z,-6.95
2022-12-15T02:19:21.975Z,-6.88
2022-12-15T02:22:17.043Z,-6.78
2022-12-15T02:25:10.796Z,-6.67
2022-12-15T02:28:01.766Z,-6.62
2022-12-15T02:31:08.073Z,-6.54
2022-12-15T02:34:00.519Z,-6.38
2022-12-15T02:36:54.590Z,-6.31
2022-12-15T02:39:24.037Z,-6.28
2022-12-15T02:41:53.278Z,-6.33
2022-12-15T02:44:35.335Z,-6.39
2022-12-15T02:47:28.565Z,-6.45
2022-12-15T02:50:10.836Z,-6.49
2022-12-15T02:52:55.563Z,-6.56
2022-12-15T02:55:59.404Z,-6.66
2022-12-15T02:58:38.069Z,-6.74
2022-12-15T03:01:14.623Z,-6.77
2022-12-15T03:03:44.387Z,-6.78
2022-12-15T03:06:13.274Z,-6.79
2022-12-15T03:08:41.640Z,-6.81
2022-12-15T03:11:09.958Z,-6.83
2022-12-15T03:13:38.360Z,-6.80
2022-12-15T03:16:06.964Z,-6.76
2022-12-15T03:18:35.456Z,-6.73
2022-12-15T03:21:03.999Z,-6.77
2022-12-15T03:23:33.027Z,-6.83
2022-12-15T03:26:01.870Z,-6.91
2022-12-15T03:28:30.187Z,-7.00
2022-12-15T03:30:58.521Z,-7.11
2022-12-15T03:33:26.927Z,-7.20
2022-12-15T03:35:56.391Z,-7.26
2022-12-15T03:38:24.662Z,-7.36
2022-12-15T03:40:53.003Z,-7.47
2022-12-15T03:43:21.263Z,-7.56
2022-12-15T03:45:49.872Z,-7.60
2022-12-15T03:48:18.297Z,-7.61
2022-12-15T03:50:48.714Z,-7.63
2022-12-15T03:53:17.615Z,-7.72
2022-12-15T03:55:45.986Z,-7.82
2022-12-15T03:58:14.338Z,-7.84
2022-12-15T04:00:42.919Z,-7.84
2022-12-15T04:03:12.035Z,-7.86
2022-12-15T04:05:40.653Z,-7.91
2022-12-15T04:08:08.980Z,-7.87
2022-12-15T04:10:37.282Z,-7.77
2022-12-15T04:13:08.300Z,-7.77
2022-12-15T04:15:38.568Z,-7.82
2022-12-15T04:18:12.692Z,-7.88
2022-12-15T04:20:41.452Z,-7.92
2022-12-15T04:23:09.881Z,-7.93
2022-12-15T04:25:57.385Z,-7.92
2022-12-15T04:28:44.200Z,-8.02
2022-12-15T04:31:47.692Z,-8.17
2022-12-15T04:34:39.056Z,-8.29
2022-12-15T04:37:29.790Z,-8.39
2022-12-15T04:40:18.893Z,-8.55
2022-12-15T04:43:07.465Z,-8.73
2022-12-15T04:45:54.653Z,-8.89
2022-12-15T04:48:41.550Z,-9.03
2022-12-15T04:51:28.499Z,-9.13
2022-12-15T04:54:15.470Z,-9.17
2022-12-15T04:57:02.330Z,-9.16
2022-12-15T04:59:49.417Z,-9.12
2022-12-15T05:02:36.970Z,-9.17
2022-12-15T05:05:24.270Z,-9.28
2022-12-15T05:08:11.387Z,-9.26
2022-12-15T05:10:58.513Z,-9.27
2022-12-15T05:13:45.502Z,-9.25
2022-12-15T05:16:32.633Z,-9.12
2022-12-15T05:19:20.136Z,-8.99
2022-12-15T05:22:07.206Z,-9.00
2022-12-15T05:24:54.308Z,-9.02
2022-12-15T05:27:41.633Z,-8.99
2022-12-15T05:30:29.190Z,-8.93
2022-12-15T05:32:57.531Z,-8.75
2022-12-15T05:35:25.981Z,-8.58
2022-12-15T05:37:54.414Z,-8.47
2022-12-15T05:40:22.759Z,-8.41
2022-12-15T05:42:51.117Z,-8.23
2022-12-15T05:45:19.447Z,-8.00
2022-12-15T05:47:54.923Z,-7.77
2022-12-15T05:50:24.096Z,-7.55
2022-12-15T05:52:52.669Z,-7.32
2022-12-15T05:55:21.023Z,-7.16
2022-12-15T05:57:55.750Z,-7.08
2022-12-15T06:00:24.309Z,-7.04
2022-12-15T06:02:52.893Z,-7.05
2022-12-15T06:05:21.165Z,-7.05
2022-12-15T06:07:50.107Z,-7.04
2022-12-15T06:10:18.548Z,-7.06
2022-12-15T06:12:47.326Z,-7.05
2022-12-15T06:15:15.879Z,-7.06
2022-12-15T06:17:44.673Z,-7.07
2022-12-15T06:20:18.230Z,-7.06
2022-12-15T06:22:49.933Z,-7.04
2022-12-15T06:25:18.737Z,-7.01
2022-12-15T06:27:47.140Z,-6.97
2022-12-15T06:30:16.447Z,-6.99
2022-12-15T06:32:44.769Z,-7.00
2022-12-15T06:35:13.139Z,-7.02
2022-12-15T06:37:41.475Z,-7.06
2022-12-15T06:40:10.497Z,-7.14
2022-12-15T06:42:39.026Z,-7.22
2022-12-15T06:45:08.617Z,-7.28
2022-12-15T06:47:37.080Z,-7.33
2022-12-15T06:50:05.804Z,-7.34
2022-12-15T06:52:34.129Z,-7.32
2022-12-15T06:55:03.711Z,-7.30
2022-12-15T06:57:32.249Z,-7.29
2022-12-15T07:00:29.731Z,-7.27
2022-12-15T07:02:58.342Z,-7.18
2022-12-15T07:05:27.834Z,-7.13
2022-12-15T07:07:56.166Z,-7.10
2022-12-15T07:10:24.560Z,-7.11
2022-12-15T07:12:52.875Z,-7.11
2022-12-15T07:15:21.268Z,-7.02
2022-12-15T07:17:49.804Z,-6.94
2022-12-15T07:20:18.304Z,-6.92
2022-12-15T07:22:51.594Z,-6.90
2022-12-15T07:25:20.996Z,-6.89
2022-12-15T07:27:49.323Z,-6.94
2022-12-15T07:30:18.400Z,-6.99
2022-12-15T07:32:50.397Z,-7.04
2022-12-15T07:35:18.963Z,-7.11
2022-12-15T07:37:47.339Z,-7.18
2022-12-15T07:40:15.676Z,-7.21
2022-12-15T07:42:44.274Z,-7.20
2022-12-15T07:45:12.606Z,-7.10
2022-12-15T07:47:41.142Z,-7.05
2022-12-15T07:50:09.656Z,-6.78
2022-12-15T07:52:38.047Z,-5.99
2022-12-15T07:55:07.230Z,-5.12
2022-12-15T07:57:35.743Z,-4.28
2022-12-15T08:00:26.087Z,-3.47
2022-12-15T08:02:54.771Z,-2.63
2022-12-15T08:05:24.041Z,-1.91
2022-12-15T08:07:52.413Z,-1.35
2022-12-15T08:10:20.792Z,-0.85
2022-12-15T08:12:49.188Z,-0.37
2022-12-15T08:15:17.612Z,0.03
2022-12-15T08:17:46.946Z,0.53
2022-12-15T08:20:15.730Z,0.97
2022-12-15T08:22:44.005Z,1.35
2022-12-15T08:25:12.467Z,1.87
2022-12-15T08:27:41.373Z,2.31
2022-12-15T08:30:10.565Z,1.82
2022-12-15T08:32:39.865Z,0.88
2022-12-15T08:35:25.303Z,-0.00
2022-12-15T08:37:53.965Z,-0.72
2022-12-15T08:40:22.392Z,-1.25
2022-12-15T08:42:50.755Z,-1.74
2022-12-15T08:45:19.160Z,-2.17
2022-12-15T08:47:47.583Z,-2.56
2022-12-15T08:50:16.147Z,-2.91
2022-12-15T08:53:00.590Z,-3.15
2022-12-15T08:55:29.412Z,-3.34
2022-12-15T08:57:58.445Z,-3.47
2022-12-15T09:00:26.896Z,-3.57
2022-12-15T09:02:55.509Z,-3.67
2022-12-15T09:05:23.947Z,-3.76
2022-12-15T09:08:06.143Z,-3.86
2022-12-15T09:10:35.292Z,-3.90
2022-12-15T09:13:03.729Z,-3.93
2022-12-15T09:16:07.069Z,-3.95
2022-12-15T09:18:20.373Z,-4.01
2022-12-15T09:20:48.776Z,-4.02
2022-12-15T09:23:17.323Z,-4.02
2022-12-15T09:25:46.887Z,-4.00
2022-12-15T09:28:15.305Z,-3.99
2022-12-15T09:30:43.612Z,-3.98
2022-12-15T09:33:12.011Z,-3.96
2022-12-15T09:35:40.525Z,-3.94
2022-12-15T09:38:08.838Z,-3.94
2022-12-15T09:40:37.214Z,-3.97
2022-12-15T09:43:33.551Z,-3.98
2022-12-15T09:46:16.279Z,-3.97
2022-12-15T09:48:47.254Z,-3.93
2022-12-15T09:51:19.045Z,-3.90
2022-12-15T09:53:56.093Z,-3.88
2022-12-15T09:56:39.225Z,-3.88
2022-12-15T09:59:41.592Z,-3.85
2022-12-15T10:02:44.114Z,-3.86
2022-12-15T10:06:06.031Z,-3.84
2022-12-15T10:08:24.114Z,-3.84
2022-12-15T10:11:05.864Z,-3.83
2022-12-15T10:14:13.541Z,-3.77
2022-12-15T10:16:55.693Z,-3.74
2022-12-15T10:19:32.018Z,-3.71
2022-12-15T10:22:00.913Z,-3.66
2022-12-15T10:25:07.932Z,-3.64
2022-12-15T10:27:47.618Z,-3.61
2022-12-15T10:30:17.852Z,-3.59
2022-12-15T10:32:56.090Z,-3.56
2022-12-15T10:35:29.831Z,-3.55
2022-12-15T10:38:04.941Z,-3.54
2022-12-15T10:40:50.209Z,-3.52
2022-12-15T10:43:27.606Z,-3.48
2022-12-15T10:46:19.080Z,-3.39
2022-12-15T10:48:59.620Z,-3.32
2022-12-15T10:51:51.723Z,-3.26
2022-12-15T10:54:21.166Z,-3.19
2022-12-15T10:57:00.616Z,-3.13
2022-12-15T10:59:32.068Z,-3.08
2022-12-15T11:02:27.827Z,-3.08
2022-12-15T11:04:59.209Z,-3.08
2022-12-15T11:07:40.030Z,-3.09
2022-12-15T11:10:53.049Z,-3.05
2022-12-15T11:13:26.347Z,-3.02
2022-12-15T11:16:14.088Z,-3.00
2022-12-15T11:19:02.759Z,-2.99
2022-12-15T11:21:37.203Z,-3.01
2022-12-15T11:24:37.006Z,-2.96
2022-12-15T11:27:19.247Z,-2.91
2022-12-15T11:30:06.125Z,-2.90
2022-12-15T11:32:37.566Z,-2.86
2022-12-15T11:35:13.519Z,-2.84
2022-12-15T11:37:51.824Z,-2.88
2022-12-15T11:40:34.163Z,-2.92
2022-12-15T11:43:09.522Z,-2.92
2022-12-15T11:46:15.345Z,-2.94
2022-12-15T11:49:02.564Z,-2.94
2022-12-15T11:51:46.752Z,-2.94
2022-12-15T11:54:39.210Z,-2.93
2022-12-15T11:57:59.205Z,-2.94
2022-12-15T12:00:32.437Z,-2.97
2022-12-15T12:03:20.999Z,-2.97
2022-12-15T12:05:57.141Z,-2.97
2022-12-15T12:08:51.217Z,-2.97
2022-12-15T12:11:29.385Z,-3.04
2022-12-15T12:14:31.572Z,-3.08
2022-12-15T12:17:27.446Z,-3.08
2022-12-15T12:20:02.990Z,-3.11
2022-12-15T12:23:05.742Z,-3.19
2022-12-15T12:25:42.019Z,-3.28
2022-12-15T12:28:23.828Z,-3.29
2022-12-15T12:30:55.451Z,-3.31
2022-12-15T12:33:45.133Z,-3.31
2022-12-15T12:36:16.294Z,-3.34
2022-12-15T12:38:51.837Z,-3.37
2022-12-15T12:41:38.932Z,-3.40
2022-12-15T12:44:31.263Z,-3.43
2022-12-15T12:47:22.855Z,-3.44
2022-12-15T12:50:14.791Z,-3.48
2022-12-15T12:52:51.329Z,-3.51
2022-12-15T12:55:27.886Z,-3.56
2022-12-15T12:57:57.374Z,-3.62
2022-12-15T13:00:33.015Z,-3.65
2022-12-15T13:03:18.136Z,-3.64
2022-12-15T13:05:50.628Z,-3.62
2022-12-15T13:08:58.893Z,-3.63
2022-12-15T13:11:58.126Z,-3.64
2022-12-15T13:14:53.634Z,-3.64
2022-12-15T13:17:39.208Z,-3.68
2022-12-15T13:20:20.888Z,-3.71
2022-12-15T13:22:50.503Z,-3.74
2022-12-15T13:25:40.605Z,-3.74
2022-12-15T13:28:20.741Z,-3.70
2022-12-15T13:31:17.308Z,-3.68
2022-12-15T13:33:52.662Z,-3.68
2022-12-15T13:36:39.941Z,-3.71
2022-12-15T13:39:17.246Z,-3.74
2022-12-15T13:44:54.904Z,-3.70
2022-12-15T13:47:24.945Z,-3.65
2022-12-15T13:50:19.909Z,-3.65
2022-12-15T13:56:38.275Z,-3.66
2022-12-15T14:00:09.762Z,-3.66
2022-12-15T14:02:38.087Z,-3.68
2022-12-15T14:05:26.339Z,-3.65
2022-12-15T14:07:55.231Z,-3.63
2022-12-15T14:10:45.998Z,-3.61
2022-12-15T14:13:30.166Z,-3.64
2022-12-15T14:16:03.715Z,-3.69
2022-12-15T14:18:39.245Z,-3.72
2022-12-15T14:21:20.367Z,-3.78
2022-12-15T14:24:36.922Z,-3.84
2022-12-15T14:26:37.197Z,-3.87
2022-12-15T14:29:06.824Z,-3.89
2022-12-15T14:31:38.168Z,-3.89
2022-12-15T14:34:18.487Z,-3.90
2022-12-15T14:36:50.724Z,-3.97
2022-12-15T14:39:50.344Z,-4.01
2022-12-15T14:42:31.363Z,-4.06
2022-12-15T14:44:59.973Z,-4.11
2022-12-15T14:47:35.155Z,-4.13
2022-12-15T14:50:10.102Z,-4.11
2022-12-15T14:52:43.287Z,-4.10
2022-12-15T14:55:30.627Z,-4.11
2022-12-15T14:58:08.469Z,-4.12
2022-12-15T15:00:50.467Z,-4.14
2022-12-15T15:03:07.530Z,-3.72
2022-12-15T15:06:01.796Z,-4.18
2022-12-15T15:08:37.004Z,-4.16
2022-12-15T15:11:36.128Z,-4.16
2022-12-15T15:14:27.198Z,-4.19
2022-12-15T15:17:14.986Z,-4.23
2022-12-15T15:20:06.177Z,-4.30
2022-12-15T15:22:43.575Z,-4.34
2022-12-15T15:25:40.263Z,-4.36
2022-12-15T15:28:17.878Z,-4.39
2022-12-15T15:31:05.924Z,-4.42
2022-12-15T15:33:34.456Z,-4.48
2022-12-15T15:36:04.549Z,-4.56
2022-12-15T15:38:36.113Z,-4.60
2022-12-15T15:41:26.801Z,-4.69
2022-12-15T15:43:56.348Z,-4.75
2022-12-15T15:46:28.700Z,-4.74
2022-12-15T15:49:03.764Z,-4.71
2022-12-15T15:51:33.911Z,-4.67
2022-12-15T15:54:08.965Z,-4.66
2022-12-15T15:56:37.308Z,-4.70
2022-12-15T15:59:14.823Z,-4.76
2022-12-15T16:01:44.782Z,-4.79
2022-12-15T16:04:13.403Z,-4.77
2022-12-15T16:06:46.917Z,-4.74
2022-12-15T16:09:17.280Z,-4.71
2022-12-15T16:11:47.065Z,-4.75
2022-12-15T16:14:18.257Z,-4.77
2022-12-15T16:16:46.819Z,-4.77
2022-12-15T16:19:15.525Z,-4.83
2022-12-15T16:21:44.006Z,-4.86
2022-12-15T16:24:19.025Z,-4.87
2022-12-15T16:26:50.427Z,-4.86
2022-12-15T16:29:22.379Z,-4.84
2022-12-15T16:31:50.925Z,-4.80
2022-12-15T16:34:22.119Z,-4.78
2022-12-15T16:36:50.971Z,-4.77
2022-12-15T16:39:29.335Z,-4.80
2022-12-15T16:41:58.466Z,-4.84
2022-12-15T16:44:29.101Z,-4.86
2022-12-15T16:46:59.298Z,-4.89
2022-12-15T16:49:35.170Z,-4.89
2022-12-15T16:52:06.919Z,-4.87
2022-12-15T16:54:35.520Z,-4.87
2022-12-15T16:57:05.876Z,-4.86
2022-12-15T16:59:48.873Z,-4.85
2022-12-15T17:02:30.461Z,-4.87
2022-12-15T17:04:59.309Z,-4.90
2022-12-15T17:07:28.488Z,-4.95
2022-12-15T17:09:57.536Z,-5.00
2022-12-15T17:12:26.619Z,-5.06
2022-12-15T17:14:55.098Z,-5.10
2022-12-15T17:17:23.896Z,-5.12
2022-12-15T17:20:27.407Z,-5.14
2022-12-15T17:22:41.483Z,-5.12
2022-12-15T17:25:27.149Z,-5.15
2022-12-15T17:28:12.527Z,-5.15
2022-12-15T17:30:42.102Z,-5.20
2022-12-15T17:33:34.534Z,-5.26
2022-12-15T17:36:27.397Z,-5.34
2022-12-15T17:38:59.316Z,-5.38
2022-12-15T17:41:58.221Z,-5.43
2022-12-15T17:44:36.335Z,-5.45
2022-12-15T17:47:09.855Z,-5.51
2022-12-15T17:49:39.112Z,-5.62
2022-12-15T17:52:28.475Z,-5.71
2022-12-15T17:54:57.964Z,-5.80
2022-12-15T17:57:27.071Z,-5.90
2022-12-15T18:00:02.250Z,-5.97
2022-12-15T18:02:33.619Z,-6.08
2022-12-15T18:05:02.463Z,-6.23
2022-12-15T18:07:31.434Z,-6.35
2022-12-15T18:10:02.017Z,-6.45
2022-12-15T18:12:30.475Z,-6.53
2022-12-15T18:15:00.176Z,-6.62
2022-12-15T18:17:29.775Z,-6.72
2022-12-15T18:19:58.857Z,-6.86
2022-12-15T18:22:29.478Z,-6.95
2022-12-15T18:24:58.575Z,-7.06
2022-12-15T18:27:29.643Z,-7.17
2022-12-15T18:29:58.481Z,-7.30
2022-12-15T18:32:30.175Z,-7.41
2022-12-15T18:34:59.037Z,-7.52
2022-12-15T18:37:28.558Z,-7.61
2022-12-15T18:40:04.186Z,-7.67
2022-12-15T18:42:35.554Z,-7.74
2022-12-15T18:45:06.045Z,-7.80
2022-12-15T18:47:34.901Z,-7.82
2022-12-15T18:50:07.176Z,-7.78
2022-12-15T18:52:37.125Z,-7.84
2022-12-15T18:55:17.031Z,-7.91
2022-12-15T18:57:46.259Z,-7.95
2022-12-15T19:00:16.409Z,-8.02
2022-12-15T19:02:46.766Z,-8.06
2022-12-15T19:05:32.974Z,-8.09
2022-12-15T19:08:14.420Z,-8.08
2022-12-15T19:10:49.079Z,-8.14
2022-12-15T19:13:20.150Z,-8.12
2022-12-15T19:15:50.335Z,-8.10
2022-12-15T19:18:41.309Z,-8.10
2022-12-15T19:21:43.806Z,-8.18
2022-12-15T19:24:19.060Z,-8.16
2022-12-15T19:26:49.867Z,-8.08
2022-12-15T19:29:22.782Z,-8.12
2022-12-15T19:31:53.452Z,-8.24
2022-12-15T19:34:22.674Z,-8.43
2022-12-15T19:36:54.543Z,-8.57
2022-12-15T19:39:25.564Z,-8.71
2022-12-15T19:41:57.182Z,-8.84
2022-12-15T19:44:26.516Z,-8.93
2022-12-15T19:46:56.389Z,-9.01
2022-12-15T19:49:25.921Z,-9.11
2022-12-15T19:51:55.397Z,-9.13
2022-12-15T19:54:29.412Z,-9.21
2022-12-15T19:56:59.819Z,-9.27
2022-12-15T20:00:39.673Z,-9.25
2022-12-15T20:03:10.008Z,-9.18
2022-12-15T20:05:39.621Z,-9.20
2022-12-15T20:08:15.566Z,-9.25
2022-12-15T20:10:46.206Z,-9.33
2022-12-15T20:13:16.893Z,-9.32
2022-12-15T20:15:46.293Z,-9.29
2022-12-15T20:18:15.974Z,-9.27
2022-12-15T20:20:48.197Z,-9.23
2022-12-15T20:23:26.670Z,-9.20
2022-12-15T20:25:56.768Z,-9.27
2022-12-15T20:28:28.377Z,-9.33
2022-12-15T20:30:58.501Z,-9.39
2022-12-15T20:33:28.057Z,-9.35
2022-12-15T20:35:56.744Z,-9.26
2022-12-15T20:38:25.525Z,-9.24
2022-12-15T20:40:56.138Z,-9.33
2022-12-15T20:43:26.590Z,-9.48
2022-12-15T20:46:12.119Z,-9.54
2022-12-15T20:48:41.603Z,-9.44
2022-12-15T20:51:34.022Z,-9.36
2022-12-15T20:54:13.835Z,-9.35
2022-12-15T20:56:43.910Z,-9.37
2022-12-15T20:59:36.674Z,-9.36
2022-12-15T21:02:23.510Z,-9.49
2022-12-15T21:04:53.099Z,-9.66
2022-12-15T21:07:22.155Z,-9.80
2022-12-15T21:09:51.427Z,-9.93
2022-12-15T21:12:22.964Z,-9.98
2022-12-15T21:14:52.714Z,-9.92
2022-12-15T21:17:23.092Z,-9.79
2022-12-15T21:19:52.918Z,-9.76
2022-12-15T21:22:25.942Z,-9.81
2022-12-15T21:24:57.243Z,-9.80
2022-12-15T21:27:25.741Z,-9.83
2022-12-15T21:29:54.364Z,-9.89
2022-12-15T21:32:23.318Z,-10.01
2022-12-15T21:34:51.745Z,-10.07
2022-12-15T21:37:28.874Z,-10.02
2022-12-15T21:39:59.841Z,-10.08
2022-12-15T21:42:28.438Z,-10.10
2022-12-15T21:44:56.742Z,-10.09
2022-12-15T21:47:52.072Z,-10.08
2022-12-15T21:50:20.759Z,-10.12
2022-12-15T21:52:49.259Z,-10.19
2022-12-15T21:55:24.166Z,-10.25
2022-12-15T21:57:53.192Z,-10.22
2022-12-15T22:01:24.919Z,-10.04
2022-12-15T22:03:56.768Z,-10.08
2022-12-15T22:06:28.049Z,-10.17
2022-12-15T22:09:00.779Z,-10.28
2022-12-15T22:11:31.696Z,-10.39
2022-12-15T22:14:03.051Z,-10.43
2022-12-15T22:16:31.340Z,-10.37
2022-12-15T22:18:59.792Z,-10.27
2022-12-15T22:21:28.135Z,-10.17
2022-12-15T22:23:56.497Z,-10.28
2022-12-15T22:26:29.243Z,-10.51
2022-12-15T22:29:01.699Z,-10.67
2022-12-15T22:31:30.076Z,-10.73
2022-12-15T22:33:58.497Z,-10.69
2022-12-15T22:36:26.861Z,-10.66
2022-12-15T22:38:55.297Z,-10.72
2022-12-15T22:41:24.382Z,-10.78
2022-12-15T22:43:56.027Z,-10.84
2022-12-15T22:46:25.425Z,-10.83
2022-12-15T22:48:54.671Z,-10.87
2022-12-15T22:51:23.374Z,-10.87
2022-12-15T22:53:51.852Z,-10.89
2022-12-15T22:56:40.561Z,-10.94
2022-12-15T22:59:36.575Z,-10.89
2022-12-15T23:02:05.547Z,-10.79
2022-12-15T23:04:34.297Z,-10.72
2022-12-15T23:07:05.906Z,-10.67
2022-12-15T23:09:34.241Z,-10.62
2022-12-15T23:12:02.613Z,-10.56
2022-12-15T23:14:59.767Z,-10.53
2022-12-15T23:17:28.138Z,-10.63
2022-12-15T23:19:56.757Z,-10.64
2022-12-15T23:22:25.067Z,-10.59
2022-12-15T23:24:53.444Z,-10.54
2022-12-15T23:27:21.754Z,-10.57
2022-12-15T23:29:50.088Z,-10.52
2022-12-15T23:32:20.238Z,-10.49
2022-12-15T23:34:48.631Z,-10.54
2022-12-15T23:37:16.997Z,-10.56
2022-12-15T23:39:45.485Z,-10.58
2022-12-15T23:42:13.864Z,-10.56
2022-12-15T23:44:42.241Z,-10.52
2022-12-15T23:47:10.770Z,-10.51
2022-12-15T23:49:39.270Z,-10.47
2022-12-15T23:52:08.786Z,-10.40
2022-12-15T23:54:37.178Z,-10.34
2022-12-15T23:57:05.594Z,-10.26
